sensor_id;sensor_type;location;lat;lon;timestamp;temperature;humidity
7936;DHT22;4013;49.744;8.118;2023-01-05T00:02:23;11.00;99.90
7936;DHT22;4013;49.744;8.118;2023-01-05T00:04:50;11.00;99.90
7936;DHT22;4013;49.744;8.118;2023-01-05T00:07:17;11.00;99.90
7936;DHT22;4013;49.744;8.118;2023-01-05T00:09:44;11.00;99.90
7936;DHT22;4013;49.744;8.118;2023-01-05T00:12:11;11.00;99.90
7936;DHT22;4013;49.744;8.118;2023-01-05T00:14:55;11.00;99.90
7936;DHT22;4013;49.744;8.118;2023-01-05T00:17:46;11.00;99.90
7936;DHT22;4013;49.744;8.118;2023-01-05T00:20:31;11.00;99.90
7936;DHT22;4013;49.744;8.118;2023-01-05T00:23:16;11.00;99.90
7936;DHT22;4013;49.744;8.118;2023-01-05T00:25:43;11.00;99.90
7936;DHT22;4013;49.744;8.118;2023-01-05T00:28:10;11.00;99.90
7936;DHT22;4013;49.744;8.118;2023-01-05T00:30:39;11.00;99.90
7936;DHT22;4013;49.744;8.118;2023-01-05T00:33:08;11.00;99.90
7936;DHT22;4013;49.744;8.118;2023-01-05T00:35:35;11.10;99.90
7936;DHT22;4013;49.744;8.118;2023-01-05T00:38:03;11.10;99.90
7936;DHT22;4013;49.744;8.118;2023-01-05T00:40:31;11.00;99.90
7936;DHT22;4013;49.744;8.118;2023-01-05T00:42:58;11.00;99.90
7936;DHT22;4013;49.744;8.118;2023-01-05T00:45:25;11.00;99.90
7936;DHT22;4013;49.744;8.118;2023-01-05T00:47:52;11.10;99.90
7936;DHT22;4013;49.744;8.118;2023-01-05T00:50:21;11.20;99.90
7936;DHT22;4013;49.744;8.118;2023-01-05T00:52:49;11.20;99.90
7936;DHT22;4013;49.744;8.118;2023-01-05T00:55:16;11.30;99.90
7936;DHT22;4013;49.744;8.118;2023-01-05T00:57:43;11.40;99.90
7936;DHT22;4013;49.744;8.118;2023-01-05T01:00:13;11.40;99.90
7936;DHT22;4013;49.744;8.118;2023-01-05T01:02:41;11.50;99.90
7936;DHT22;4013;49.744;8.118;2023-01-05T01:05:09;11.50;99.90
7936;DHT22;4013;49.744;8.118;2023-01-05T01:07:37;11.60;99.90
7936;DHT22;4013;49.744;8.118;2023-01-05T01:10:05;11.60;99.90
7936;DHT22;4013;49.744;8.118;2023-01-05T01:12:32;11.60;99.90
7936;DHT22;4013;49.744;8.118;2023-01-05T01:14:59;11.70;99.90
7936;DHT22;4013;49.744;8.118;2023-01-05T01:17:26;11.70;99.90
7936;DHT22;4013;49.744;8.118;2023-01-05T01:19:53;11.70;99.90
7936;DHT22;4013;49.744;8.118;2023-01-05T01:22:20;11.70;99.90
7936;DHT22;4013;49.744;8.118;2023-01-05T01:24:48;11.70;99.90
7936;DHT22;4013;49.744;8.118;2023-01-05T01:27:15;11.70;99.90
7936;DHT22;4013;49.744;8.118;2023-01-05T01:29:42;11.80;99.90
7936;DHT22;4013;49.744;8.118;2023-01-05T01:32:09;11.80;99.90
7936;DHT22;4013;49.744;8.118;2023-01-05T01:34:36;11.80;99.90
7936;DHT22;4013;49.744;8.118;2023-01-05T01:37:04;11.80;99.90
7936;DHT22;4013;49.744;8.118;2023-01-05T01:39:31;11.80;99.90
7936;DHT22;4013;49.744;8.118;2023-01-05T01:41:59;11.60;99.90
7936;DHT22;4013;49.744;8.118;2023-01-05T01:44:49;11.60;99.90
7936;DHT22;4013;49.744;8.118;2023-01-05T01:47:21;11.50;99.90
7936;DHT22;4013;49.744;8.118;2023-01-05T01:49:50;11.50;99.90
7936;DHT22;4013;49.744;8.118;2023-01-05T01:52:18;11.50;99.90
7936;DHT22;4013;49.744;8.118;2023-01-05T01:54:46;11.40;99.90
7936;DHT22;4013;49.744;8.118;2023-01-05T01:57:16;11.40;99.90
7936;DHT22;4013;49.744;8.118;2023-01-05T01:59:43;11.40;99.90
7936;DHT22;4013;49.744;8.118;2023-01-05T02:02:10;11.30;99.90
7936;DHT22;4013;49.744;8.118;2023-01-05T02:04:38;11.20;99.90
7936;DHT22;4013;49.744;8.118;2023-01-05T02:07:07;11.20;99.90
7936;DHT22;4013;49.744;8.118;2023-01-05T02:09:35;11.20;99.90
7936;DHT22;4013;49.744;8.118;2023-01-05T02:12:06;11.20;99.90
7936;DHT22;4013;49.744;8.118;2023-01-05T02:14:46;11.10;99.90
7936;DHT22;4013;49.744;8.118;2023-01-05T02:17:19;11.10;99.90
7936;DHT22;4013;49.744;8.118;2023-01-05T02:20:27;11.10;99.90
7936;DHT22;4013;49.744;8.118;2023-01-05T02:23:16;11.10;99.90
7936;DHT22;4013;49.744;8.118;2023-01-05T02:28:59;11.10;99.90
7936;DHT22;4013;49.744;8.118;2023-01-05T02:31:35;11.10;99.90
7936;DHT22;4013;49.744;8.118;2023-01-05T02:34:11;11.10;99.90
7936;DHT22;4013;49.744;8.118;2023-01-05T02:36:45;11.10;99.90
7936;DHT22;4013;49.744;8.118;2023-01-05T02:39:17;11.10;99.90
7936;DHT22;4013;49.744;8.118;2023-01-05T02:41:48;11.10;99.90
7936;DHT22;4013;49.744;8.118;2023-01-05T02:44:18;11.10;99.90
7936;DHT22;4013;49.744;8.118;2023-01-05T02:46:58;11.10;99.90
7936;DHT22;4013;49.744;8.118;2023-01-05T02:49:26;11.10;99.90
7936;DHT22;4013;49.744;8.118;2023-01-05T02:51:56;11.20;99.90
7936;DHT22;4013;49.744;8.118;2023-01-05T02:54:28;11.20;99.90
7936;DHT22;4013;49.744;8.118;2023-01-05T02:56:58;11.20;99.90
7936;DHT22;4013;49.744;8.118;2023-01-05T02:59:29;11.20;99.90
7936;DHT22;4013;49.744;8.118;2023-01-05T03:02:01;11.20;99.90
7936;DHT22;4013;49.744;8.118;2023-01-05T03:04:33;11.20;99.90
7936;DHT22;4013;49.744;8.118;2023-01-05T03:07:07;11.30;99.90
7936;DHT22;4013;49.744;8.118;2023-01-05T03:09:37;11.30;99.90
7936;DHT22;4013;49.744;8.118;2023-01-05T03:12:08;11.30;99.90
7936;DHT22;4013;49.744;8.118;2023-01-05T03:14:57;11.20;99.90
7936;DHT22;4013;49.744;8.118;2023-01-05T03:17:31;11.20;99.90
7936;DHT22;4013;49.744;8.118;2023-01-05T03:19:59;11.20;99.90
7936;DHT22;4013;49.744;8.118;2023-01-05T03:22:27;11.10;99.90
7936;DHT22;4013;49.744;8.118;2023-01-05T03:25:14;11.10;99.90
7936;DHT22;4013;49.744;8.118;2023-01-05T03:28:02;11.00;99.90
7936;DHT22;4013;49.744;8.118;2023-01-05T03:30:53;11.00;99.90
7936;DHT22;4013;49.744;8.118;2023-01-05T03:33:47;10.90;99.90
7936;DHT22;4013;49.744;8.118;2023-01-05T03:36:40;10.90;99.90
7936;DHT22;4013;49.744;8.118;2023-01-05T03:39:11;10.90;99.90
7936;DHT22;4013;49.744;8.118;2023-01-05T03:41:39;10.90;99.90
7936;DHT22;4013;49.744;8.118;2023-01-05T03:44:06;10.90;99.90
7936;DHT22;4013;49.744;8.118;2023-01-05T03:46:34;10.90;99.90
7936;DHT22;4013;49.744;8.118;2023-01-05T03:49:02;10.90;99.90
7936;DHT22;4013;49.744;8.118;2023-01-05T03:51:29;10.90;99.90
7936;DHT22;4013;49.744;8.118;2023-01-05T03:53:56;10.90;99.90
7936;DHT22;4013;49.744;8.118;2023-01-05T03:56:23;10.90;99.90
7936;DHT22;4013;49.744;8.118;2023-01-05T03:58:50;10.90;99.90
7936;DHT22;4013;49.744;8.118;2023-01-05T04:01:17;10.90;99.90
7936;DHT22;4013;49.744;8.118;2023-01-05T04:03:44;10.90;99.90
7936;DHT22;4013;49.744;8.118;2023-01-05T04:06:12;10.90;99.90
7936;DHT22;4013;49.744;8.118;2023-01-05T04:08:39;10.90;99.90
7936;DHT22;4013;49.744;8.118;2023-01-05T04:11:11;10.80;99.90
7936;DHT22;4013;49.744;8.118;2023-01-05T04:13:38;10.80;99.90
7936;DHT22;4013;49.744;8.118;2023-01-05T04:16:05;10.80;99.90
7936;DHT22;4013;49.744;8.118;2023-01-05T04:18:32;10.80;99.90
7936;DHT22;4013;49.744;8.118;2023-01-05T04:20:59;10.80;99.90
7936;DHT22;4013;49.744;8.118;2023-01-05T04:23:28;10.80;99.90
7936;DHT22;4013;49.744;8.118;2023-01-05T04:25:55;10.90;99.90
7936;DHT22;4013;49.744;8.118;2023-01-05T04:28:22;10.90;99.90
7936;DHT22;4013;49.744;8.118;2023-01-05T04:30:49;10.90;99.90
7936;DHT22;4013;49.744;8.118;2023-01-05T04:33:17;10.90;99.90
7936;DHT22;4013;49.744;8.118;2023-01-05T04:35:44;10.90;99.90
7936;DHT22;4013;49.744;8.118;2023-01-05T04:38:11;10.90;99.90
7936;DHT22;4013;49.744;8.118;2023-01-05T04:40:40;11.00;99.90
7936;DHT22;4013;49.744;8.118;2023-01-05T04:43:07;11.00;99.90
7936;DHT22;4013;49.744;8.118;2023-01-05T04:45:34;11.00;99.90
7936;DHT22;4013;49.744;8.118;2023-01-05T04:48:01;11.10;99.90
7936;DHT22;4013;49.744;8.118;2023-01-05T04:50:28;11.00;99.90
7936;DHT22;4013;49.744;8.118;2023-01-05T04:52:55;11.00;99.90
7936;DHT22;4013;49.744;8.118;2023-01-05T04:55:22;11.00;99.90
7936;DHT22;4013;49.744;8.118;2023-01-05T04:57:50;11.00;99.90
7936;DHT22;4013;49.744;8.118;2023-01-05T05:00:17;11.10;99.90
7936;DHT22;4013;49.744;8.118;2023-01-05T05:02:44;11.10;99.90
7936;DHT22;4013;49.744;8.118;2023-01-05T05:05:11;11.00;99.90
7936;DHT22;4013;49.744;8.118;2023-01-05T05:07:38;11.00;99.90
7936;DHT22;4013;49.744;8.118;2023-01-05T05:10:06;11.00;99.90
7936;DHT22;4013;49.744;8.118;2023-01-05T05:12:33;11.00;99.90
7936;DHT22;4013;49.744;8.118;2023-01-05T05:15:02;11.00;99.90
7936;DHT22;4013;49.744;8.118;2023-01-05T05:17:28;11.00;99.90
7936;DHT22;4013;49.744;8.118;2023-01-05T05:19:55;11.00;99.90
7936;DHT22;4013;49.744;8.118;2023-01-05T05:22:22;11.00;99.90
7936;DHT22;4013;49.744;8.118;2023-01-05T05:24:49;11.00;99.90
7936;DHT22;4013;49.744;8.118;2023-01-05T05:27:16;11.00;99.90
7936;DHT22;4013;49.744;8.118;2023-01-05T05:29:43;11.00;99.90
7936;DHT22;4013;49.744;8.118;2023-01-05T05:32:11;11.00;99.90
7936;DHT22;4013;49.744;8.118;2023-01-05T05:34:38;11.00;99.90
7936;DHT22;4013;49.744;8.118;2023-01-05T05:37:05;11.00;99.90
7936;DHT22;4013;49.744;8.118;2023-01-05T05:39:33;11.00;99.90
7936;DHT22;4013;49.744;8.118;2023-01-05T05:41:59;10.90;99.90
7936;DHT22;4013;49.744;8.118;2023-01-05T05:44:26;10.90;99.90
7936;DHT22;4013;49.744;8.118;2023-01-05T05:46:53;11.00;99.90
7936;DHT22;4013;49.744;8.118;2023-01-05T05:49:22;10.90;99.90
7936;DHT22;4013;49.744;8.118;2023-01-05T05:51:49;10.90;99.90
7936;DHT22;4013;49.744;8.118;2023-01-05T05:54:16;11.00;99.90
7936;DHT22;4013;49.744;8.118;2023-01-05T05:56:43;10.90;99.90
7936;DHT22;4013;49.744;8.118;2023-01-05T05:59:10;10.90;99.90
7936;DHT22;4013;49.744;8.118;2023-01-05T06:01:37;10.90;99.90
7936;DHT22;4013;49.744;8.118;2023-01-05T06:04:04;10.90;99.90
7936;DHT22;4013;49.744;8.118;2023-01-05T06:06:32;10.90;99.90
7936;DHT22;4013;49.744;8.118;2023-01-05T06:08:59;10.90;99.90
7936;DHT22;4013;49.744;8.118;2023-01-05T06:11:26;10.80;99.90
7936;DHT22;4013;49.744;8.118;2023-01-05T06:13:53;10.80;99.90
7936;DHT22;4013;49.744;8.118;2023-01-05T06:16:20;10.80;99.90
7936;DHT22;4013;49.744;8.118;2023-01-05T06:18:47;10.80;99.90
7936;DHT22;4013;49.744;8.118;2023-01-05T06:21:14;10.80;99.90
7936;DHT22;4013;49.744;8.118;2023-01-05T06:23:42;10.80;99.90
7936;DHT22;4013;49.744;8.118;2023-01-05T06:26:09;10.70;99.90
7936;DHT22;4013;49.744;8.118;2023-01-05T06:28:36;10.80;99.90
7936;DHT22;4013;49.744;8.118;2023-01-05T06:31:03;10.70;99.90
7936;DHT22;4013;49.744;8.118;2023-01-05T06:33:31;10.80;99.90
7936;DHT22;4013;49.744;8.118;2023-01-05T06:35:58;10.80;99.90
7936;DHT22;4013;49.744;8.118;2023-01-05T06:38:27;10.80;99.90
7936;DHT22;4013;49.744;8.118;2023-01-05T06:40:55;10.80;99.90
7936;DHT22;4013;49.744;8.118;2023-01-05T06:43:22;10.80;99.90
7936;DHT22;4013;49.744;8.118;2023-01-05T06:45:50;10.70;99.90
7936;DHT22;4013;49.744;8.118;2023-01-05T06:48:17;10.70;99.90
7936;DHT22;4013;49.744;8.118;2023-01-05T06:50:44;10.60;99.90
7936;DHT22;4013;49.744;8.118;2023-01-05T06:53:11;10.60;99.90
7936;DHT22;4013;49.744;8.118;2023-01-05T06:55:38;10.60;99.90
7936;DHT22;4013;49.744;8.118;2023-01-05T06:58:07;10.60;99.90
7936;DHT22;4013;49.744;8.118;2023-01-05T07:00:34;10.70;99.90
7936;DHT22;4013;49.744;8.118;2023-01-05T07:03:01;10.70;99.90
7936;DHT22;4013;49.744;8.118;2023-01-05T07:05:28;10.70;99.90
7936;DHT22;4013;49.744;8.118;2023-01-05T07:07:55;10.70;99.90
7936;DHT22;4013;49.744;8.118;2023-01-05T07:10:22;10.70;99.90
7936;DHT22;4013;49.744;8.118;2023-01-05T07:12:48;10.60;99.90
7936;DHT22;4013;49.744;8.118;2023-01-05T07:15:17;10.60;99.90
7936;DHT22;4013;49.744;8.118;2023-01-05T07:17:44;10.60;99.90
7936;DHT22;4013;49.744;8.118;2023-01-05T07:20:11;10.60;99.90
7936;DHT22;4013;49.744;8.118;2023-01-05T07:22:38;10.50;99.90
7936;DHT22;4013;49.744;8.118;2023-01-05T07:25:05;10.60;99.90
7936;DHT22;4013;49.744;8.118;2023-01-05T07:27:33;10.60;99.90
7936;DHT22;4013;49.744;8.118;2023-01-05T07:30:00;10.50;99.90
7936;DHT22;4013;49.744;8.118;2023-01-05T07:32:28;10.50;99.90
7936;DHT22;4013;49.744;8.118;2023-01-05T07:34:55;10.60;99.90
7936;DHT22;4013;49.744;8.118;2023-01-05T07:37:22;10.50;99.90
7936;DHT22;4013;49.744;8.118;2023-01-05T07:39:49;10.60;99.90
7936;DHT22;4013;49.744;8.118;2023-01-05T07:42:16;10.50;99.90
7936;DHT22;4013;49.744;8.118;2023-01-05T07:44:43;10.60;99.90
7936;DHT22;4013;49.744;8.118;2023-01-05T07:47:10;10.60;99.90
7936;DHT22;4013;49.744;8.118;2023-01-05T07:49:38;10.60;99.90
7936;DHT22;4013;49.744;8.118;2023-01-05T07:52:05;10.60;99.90
7936;DHT22;4013;49.744;8.118;2023-01-05T07:54:32;10.60;99.90
7936;DHT22;4013;49.744;8.118;2023-01-05T07:56:59;10.60;99.90
7936;DHT22;4013;49.744;8.118;2023-01-05T07:59:26;10.70;99.90
7936;DHT22;4013;49.744;8.118;2023-01-05T08:01:53;10.70;99.90
7936;DHT22;4013;49.744;8.118;2023-01-05T08:04:20;10.60;99.90
7936;DHT22;4013;49.744;8.118;2023-01-05T08:06:48;10.70;99.90
7936;DHT22;4013;49.744;8.118;2023-01-05T08:09:17;10.70;99.90
7936;DHT22;4013;49.744;8.118;2023-01-05T08:12:01;10.70;99.90
7936;DHT22;4013;49.744;8.118;2023-01-05T08:14:28;10.70;99.90
7936;DHT22;4013;49.744;8.118;2023-01-05T08:16:55;10.70;99.90
7936;DHT22;4013;49.744;8.118;2023-01-05T08:19:22;10.70;99.90
7936;DHT22;4013;49.744;8.118;2023-01-05T08:21:50;10.60;99.90
7936;DHT22;4013;49.744;8.118;2023-01-05T08:24:17;10.60;99.90
7936;DHT22;4013;49.744;8.118;2023-01-05T08:26:44;10.70;99.90
7936;DHT22;4013;49.744;8.118;2023-01-05T08:29:11;10.70;99.90
7936;DHT22;4013;49.744;8.118;2023-01-05T08:31:39;10.70;99.90
7936;DHT22;4013;49.744;8.118;2023-01-05T08:34:06;10.70;99.90
7936;DHT22;4013;49.744;8.118;2023-01-05T08:36:33;10.70;99.90
7936;DHT22;4013;49.744;8.118;2023-01-05T08:39:01;10.70;99.90
7936;DHT22;4013;49.744;8.118;2023-01-05T08:41:32;10.70;99.90
7936;DHT22;4013;49.744;8.118;2023-01-05T08:44:02;10.70;99.90
7936;DHT22;4013;49.744;8.118;2023-01-05T08:46:31;10.70;99.90
7936;DHT22;4013;49.744;8.118;2023-01-05T08:49:00;10.60;99.90
7936;DHT22;4013;49.744;8.118;2023-01-05T08:51:28;10.60;99.90
7936;DHT22;4013;49.744;8.118;2023-01-05T08:53:56;10.60;99.90
7936;DHT22;4013;49.744;8.118;2023-01-05T08:56:25;10.60;99.90
7936;DHT22;4013;49.744;8.118;2023-01-05T08:58:53;10.60;99.90
7936;DHT22;4013;49.744;8.118;2023-01-05T09:01:22;10.60;99.90
7936;DHT22;4013;49.744;8.118;2023-01-05T09:03:49;10.60;99.90
7936;DHT22;4013;49.744;8.118;2023-01-05T09:06:16;10.60;99.90
7936;DHT22;4013;49.744;8.118;2023-01-05T09:08:44;10.70;99.90
7936;DHT22;4013;49.744;8.118;2023-01-05T09:11:13;10.70;99.90
7936;DHT22;4013;49.744;8.118;2023-01-05T09:13:44;10.70;99.90
7936;DHT22;4013;49.744;8.118;2023-01-05T09:16:13;10.80;99.90
7936;DHT22;4013;49.744;8.118;2023-01-05T09:18:41;10.70;99.90
7936;DHT22;4013;49.744;8.118;2023-01-05T09:21:09;10.80;99.90
7936;DHT22;4013;49.744;8.118;2023-01-05T09:23:37;10.80;99.90
7936;DHT22;4013;49.744;8.118;2023-01-05T09:26:05;10.90;99.90
7936;DHT22;4013;49.744;8.118;2023-01-05T09:28:32;10.80;99.90
7936;DHT22;4013;49.744;8.118;2023-01-05T09:31:07;10.90;99.90
7936;DHT22;4013;49.744;8.118;2023-01-05T09:33:34;10.90;99.90
7936;DHT22;4013;49.744;8.118;2023-01-05T09:36:01;10.90;99.90
7936;DHT22;4013;49.744;8.118;2023-01-05T09:38:28;10.90;99.90
7936;DHT22;4013;49.744;8.118;2023-01-05T09:40:59;10.90;99.90
7936;DHT22;4013;49.744;8.118;2023-01-05T09:43:32;10.90;99.90
7936;DHT22;4013;49.744;8.118;2023-01-05T09:46:02;10.90;99.90
7936;DHT22;4013;49.744;8.118;2023-01-05T09:48:37;11.00;99.90
7936;DHT22;4013;49.744;8.118;2023-01-05T09:51:05;11.10;99.90
7936;DHT22;4013;49.744;8.118;2023-01-05T09:53:33;11.10;99.90
7936;DHT22;4013;49.744;8.118;2023-01-05T09:56:00;11.10;99.90
7936;DHT22;4013;49.744;8.118;2023-01-05T09:58:32;11.10;99.90
7936;DHT22;4013;49.744;8.118;2023-01-05T10:01:06;11.20;99.90
7936;DHT22;4013;49.744;8.118;2023-01-05T10:03:39;11.20;99.90
7936;DHT22;4013;49.744;8.118;2023-01-05T10:06:11;11.30;99.90
7936;DHT22;4013;49.744;8.118;2023-01-05T10:08:42;11.30;99.90
7936;DHT22;4013;49.744;8.118;2023-01-05T10:11:13;11.30;99.90
7936;DHT22;4013;49.744;8.118;2023-01-05T10:14:03;11.30;99.90
7936;DHT22;4013;49.744;8.118;2023-01-05T10:16:31;11.30;99.90
7936;DHT22;4013;49.744;8.118;2023-01-05T10:18:59;11.30;99.90
7936;DHT22;4013;49.744;8.118;2023-01-05T10:21:32;11.30;99.90
7936;DHT22;4013;49.744;8.118;2023-01-05T10:24:15;11.40;99.90
7936;DHT22;4013;49.744;8.118;2023-01-05T10:26:50;11.50;99.90
7936;DHT22;4013;49.744;8.118;2023-01-05T10:29:23;11.50;99.90
7936;DHT22;4013;49.744;8.118;2023-01-05T10:31:55;11.50;99.90
7936;DHT22;4013;49.744;8.118;2023-01-05T10:34:37;11.50;99.90
7936;DHT22;4013;49.744;8.118;2023-01-05T10:37:20;11.60;99.90
7936;DHT22;4013;49.744;8.118;2023-01-05T10:39:59;11.60;99.90
7936;DHT22;4013;49.744;8.118;2023-01-05T10:42:42;11.50;99.90
7936;DHT22;4013;49.744;8.118;2023-01-05T10:45:12;11.60;99.90
7936;DHT22;4013;49.744;8.118;2023-01-05T10:47:40;11.60;99.90
7936;DHT22;4013;49.744;8.118;2023-01-05T10:50:34;11.60;99.90
7936;DHT22;4013;49.744;8.118;2023-01-05T10:53:08;11.60;99.90
7936;DHT22;4013;49.744;8.118;2023-01-05T10:55:47;11.60;99.90
7936;DHT22;4013;49.744;8.118;2023-01-05T10:58:21;11.70;99.90
7936;DHT22;4013;49.744;8.118;2023-01-05T11:00:48;11.80;99.90
7936;DHT22;4013;49.744;8.118;2023-01-05T11:03:16;11.80;99.90
7936;DHT22;4013;49.744;8.118;2023-01-05T11:05:47;11.90;99.90
7936;DHT22;4013;49.744;8.118;2023-01-05T11:08:16;11.80;99.90
7936;DHT22;4013;49.744;8.118;2023-01-05T11:10:51;11.80;99.90
7936;DHT22;4013;49.744;8.118;2023-01-05T11:13:28;11.70;99.90
7936;DHT22;4013;49.744;8.118;2023-01-05T11:15:59;11.60;99.90
7936;DHT22;4013;49.744;8.118;2023-01-05T11:18:31;11.50;99.90
7936;DHT22;4013;49.744;8.118;2023-01-05T11:21:10;11.50;99.90
7936;DHT22;4013;49.744;8.118;2023-01-05T11:23:39;11.50;99.90
7936;DHT22;4013;49.744;8.118;2023-01-05T11:26:32;11.50;99.90
7936;DHT22;4013;49.744;8.118;2023-01-05T11:29:11;11.50;99.90
7936;DHT22;4013;49.744;8.118;2023-01-05T11:31:43;11.50;99.90
7936;DHT22;4013;49.744;8.118;2023-01-05T11:34:18;11.50;99.90
7936;DHT22;4013;49.744;8.118;2023-01-05T11:36:53;11.50;99.90
7936;DHT22;4013;49.744;8.118;2023-01-05T11:39:26;11.50;99.90
7936;DHT22;4013;49.744;8.118;2023-01-05T11:42:09;11.50;99.90
7936;DHT22;4013;49.744;8.118;2023-01-05T11:44:37;11.60;99.90
7936;DHT22;4013;49.744;8.118;2023-01-05T11:47:06;11.60;99.90
7936;DHT22;4013;49.744;8.118;2023-01-05T11:49:34;11.70;99.90
7936;DHT22;4013;49.744;8.118;2023-01-05T11:52:03;11.70;99.90
7936;DHT22;4013;49.744;8.118;2023-01-05T11:54:49;11.70;99.90
7936;DHT22;4013;49.744;8.118;2023-01-05T11:57:18;11.70;99.90
7936;DHT22;4013;49.744;8.118;2023-01-05T11:59:47;11.80;99.90
7936;DHT22;4013;49.744;8.118;2023-01-05T12:05:30;11.80;99.90
7936;DHT22;4013;49.744;8.118;2023-01-05T12:08:06;11.70;99.90
7936;DHT22;4013;49.744;8.118;2023-01-05T12:10:51;11.70;99.90
7936;DHT22;4013;49.744;8.118;2023-01-05T12:13:45;11.60;99.90
7936;DHT22;4013;49.744;8.118;2023-01-05T12:16:21;11.60;99.90
7936;DHT22;4013;49.744;8.118;2023-01-05T12:19:21;11.50;99.90
7936;DHT22;4013;49.744;8.118;2023-01-05T12:21:55;11.50;99.90
7936;DHT22;4013;49.744;8.118;2023-01-05T12:24:45;11.50;99.90
7936;DHT22;4013;49.744;8.118;2023-01-05T12:27:28;11.40;99.90
7936;DHT22;4013;49.744;8.118;2023-01-05T12:30:13;11.40;99.90
7936;DHT22;4013;49.744;8.118;2023-01-05T12:32:51;11.30;99.90
7936;DHT22;4013;49.744;8.118;2023-01-05T12:38:35;11.20;99.90
7936;DHT22;4013;49.744;8.118;2023-01-05T12:47:07;11.20;99.90
7936;DHT22;4013;49.744;8.118;2023-01-05T12:49:41;11.10;99.90
7936;DHT22;4013;49.744;8.118;2023-01-05T12:52:13;11.20;99.90
7936;DHT22;4013;49.744;8.118;2023-01-05T12:54:45;11.10;99.90
7936;DHT22;4013;49.744;8.118;2023-01-05T12:57:22;11.10;99.90
7936;DHT22;4013;49.744;8.118;2023-01-05T12:59:55;11.10;99.90
7936;DHT22;4013;49.744;8.118;2023-01-05T13:02:33;11.20;99.90
7936;DHT22;4013;49.744;8.118;2023-01-05T13:05:06;11.20;99.90
7936;DHT22;4013;49.744;8.118;2023-01-05T13:07:37;11.10;99.90
7936;DHT22;4013;49.744;8.118;2023-01-05T13:10:16;11.10;99.90
7936;DHT22;4013;49.744;8.118;2023-01-05T13:12:47;11.10;99.90
7936;DHT22;4013;49.744;8.118;2023-01-05T13:15:20;11.10;99.90
7936;DHT22;4013;49.744;8.118;2023-01-05T13:17:50;11.20;99.90
7936;DHT22;4013;49.744;8.118;2023-01-05T13:20:34;11.20;99.90
7936;DHT22;4013;49.744;8.118;2023-01-05T13:23:06;11.20;99.90
7936;DHT22;4013;49.744;8.118;2023-01-05T13:25:44;11.20;99.90
7936;DHT22;4013;49.744;8.118;2023-01-05T13:28:19;11.20;99.90
7936;DHT22;4013;49.744;8.118;2023-01-05T13:30:58;11.30;99.90
7936;DHT22;4013;49.744;8.118;2023-01-05T13:33:44;11.30;99.90
7936;DHT22;4013;49.744;8.118;2023-01-05T13:36:24;11.30;99.90
7936;DHT22;4013;49.744;8.118;2023-01-05T13:39:25;11.30;99.90
7936;DHT22;4013;49.744;8.118;2023-01-05T13:45:11;11.30;99.90
7936;DHT22;4013;49.744;8.118;2023-01-05T13:47:53;11.30;99.90
7936;DHT22;4013;49.744;8.118;2023-01-05T13:51:00;11.30;99.90
7936;DHT22;4013;49.744;8.118;2023-01-05T13:53:35;11.40;99.90
7936;DHT22;4013;49.744;8.118;2023-01-05T13:56:15;11.40;99.90
7936;DHT22;4013;49.744;8.118;2023-01-05T13:58:44;11.40;99.90
7936;DHT22;4013;49.744;8.118;2023-01-05T14:01:15;11.50;99.90
7936;DHT22;4013;49.744;8.118;2023-01-05T14:03:49;11.60;99.90
7936;DHT22;4013;49.744;8.118;2023-01-05T14:06:24;11.60;99.90
7936;DHT22;4013;49.744;8.118;2023-01-05T14:08:55;11.70;99.90
7936;DHT22;4013;49.744;8.118;2023-01-05T14:11:24;11.60;99.90
7936;DHT22;4013;49.744;8.118;2023-01-05T14:13:57;11.60;99.90
7936;DHT22;4013;49.744;8.118;2023-01-05T14:16:51;11.70;99.90
7936;DHT22;4013;49.744;8.118;2023-01-05T14:22:32;11.80;99.90
7936;DHT22;4013;49.744;8.118;2023-01-05T14:28:21;11.80;99.90
7936;DHT22;4013;49.744;8.118;2023-01-05T14:30:50;11.70;99.90
7936;DHT22;4013;49.744;8.118;2023-01-05T14:33:19;11.70;99.90
7936;DHT22;4013;49.744;8.118;2023-01-05T14:35:46;11.70;99.90
7936;DHT22;4013;49.744;8.118;2023-01-05T14:38:20;11.70;99.90
7936;DHT22;4013;49.744;8.118;2023-01-05T14:40:52;11.70;99.90
7936;DHT22;4013;49.744;8.118;2023-01-05T14:43:31;11.70;99.90
7936;DHT22;4013;49.744;8.118;2023-01-05T14:46:02;11.70;99.90
7936;DHT22;4013;49.744;8.118;2023-01-05T14:48:35;11.70;99.90
7936;DHT22;4013;49.744;8.118;2023-01-05T14:51:17;11.70;99.90
7936;DHT22;4013;49.744;8.118;2023-01-05T14:53:46;11.70;99.90
7936;DHT22;4013;49.744;8.118;2023-01-05T14:56:17;11.80;99.90
7936;DHT22;4013;49.744;8.118;2023-01-05T14:59:00;11.70;99.90
7936;DHT22;4013;49.744;8.118;2023-01-05T15:01:34;11.70;99.90
7936;DHT22;4013;49.744;8.118;2023-01-05T15:04:07;11.70;99.90
7936;DHT22;4013;49.744;8.118;2023-01-05T15:06:44;11.60;99.90
7936;DHT22;4013;49.744;8.118;2023-01-05T15:09:28;11.70;99.90
7936;DHT22;4013;49.744;8.118;2023-01-05T15:12:25;11.60;99.90
7936;DHT22;4013;49.744;8.118;2023-01-05T15:15:27;11.70;99.90
7936;DHT22;4013;49.744;8.118;2023-01-05T15:18:19;11.70;99.90
7936;DHT22;4013;49.744;8.118;2023-01-05T15:21:18;11.60;99.90
7936;DHT22;4013;49.744;8.118;2023-01-05T15:27:06;11.60;99.90
7936;DHT22;4013;49.744;8.118;2023-01-05T15:29:56;11.60;99.90
7936;DHT22;4013;49.744;8.118;2023-01-05T15:32:27;11.60;99.90
7936;DHT22;4013;49.744;8.118;2023-01-05T15:35:04;11.50;99.90
7936;DHT22;4013;49.744;8.118;2023-01-05T15:37:38;11.50;99.90
7936;DHT22;4013;49.744;8.118;2023-01-05T15:40:26;11.50;99.90
7936;DHT22;4013;49.744;8.118;2023-01-05T15:42:55;11.50;99.90
7936;DHT22;4013;49.744;8.118;2023-01-05T15:45:25;11.50;99.90
7936;DHT22;4013;49.744;8.118;2023-01-05T15:47:54;11.50;99.90
7936;DHT22;4013;49.744;8.118;2023-01-05T15:50:25;11.50;99.90
7936;DHT22;4013;49.744;8.118;2023-01-05T15:52:55;11.40;99.90
7936;DHT22;4013;49.744;8.118;2023-01-05T15:55:23;11.40;99.90
7936;DHT22;4013;49.744;8.118;2023-01-05T15:57:54;11.40;99.90
7936;DHT22;4013;49.744;8.118;2023-01-05T16:00:24;11.40;99.90
7936;DHT22;4013;49.744;8.118;2023-01-05T16:02:52;11.40;99.90
7936;DHT22;4013;49.744;8.118;2023-01-05T16:05:20;11.40;99.90
7936;DHT22;4013;49.744;8.118;2023-01-05T16:07:54;11.40;99.90
7936;DHT22;4013;49.744;8.118;2023-01-05T16:10:26;11.40;99.90
7936;DHT22;4013;49.744;8.118;2023-01-05T16:12:58;11.30;99.90
7936;DHT22;4013;49.744;8.118;2023-01-05T16:15:26;11.30;99.90
7936;DHT22;4013;49.744;8.118;2023-01-05T16:17:56;11.40;99.90
7936;DHT22;4013;49.744;8.118;2023-01-05T16:20:24;11.40;99.90
7936;DHT22;4013;49.744;8.118;2023-01-05T16:22:59;11.30;99.90
7936;DHT22;4013;49.744;8.118;2023-01-05T16:25:31;11.30;99.90
7936;DHT22;4013;49.744;8.118;2023-01-05T16:28:00;11.30;99.90
7936;DHT22;4013;49.744;8.118;2023-01-05T16:30:31;11.30;99.90
7936;DHT22;4013;49.744;8.118;2023-01-05T16:32:59;11.30;99.90
7936;DHT22;4013;49.744;8.118;2023-01-05T16:35:40;11.40;99.90
7936;DHT22;4013;49.744;8.118;2023-01-05T16:38:28;11.30;99.90
7936;DHT22;4013;49.744;8.118;2023-01-05T16:41:22;11.30;99.90
7936;DHT22;4013;49.744;8.118;2023-01-05T16:43:53;11.30;99.90
7936;DHT22;4013;49.744;8.118;2023-01-05T16:46:35;11.30;99.90
7936;DHT22;4013;49.744;8.118;2023-01-05T16:49:23;11.40;99.90
7936;DHT22;4013;49.744;8.118;2023-01-05T16:51:51;11.40;99.90
7936;DHT22;4013;49.744;8.118;2023-01-05T16:54:22;11.30;99.90
7936;DHT22;4013;49.744;8.118;2023-01-05T16:56:55;11.30;99.90
7936;DHT22;4013;49.744;8.118;2023-01-05T16:59:40;11.30;99.90
7936;DHT22;4013;49.744;8.118;2023-01-05T17:02:29;11.30;99.90